Rye, New Hampshire
Current Conditions -  °F | °C
As of 12:58 AM on Tuesday 21 Oct 2014 (Local Time) from KPSM Reporting Station
Overcast Overcast  
Wind Chill: 47°   Ceiling: 10000
Heat Index: 47°   Visibility: 10mi
Dew Point: 38°   Wind: 1mph
Humidity: 69%   Direction: 160°SSE
Pressure: 30"   Gusts: NA
Location:  43.01°N, 70.77°W
Report Text: KPSM 210458Z 16001KT 10SM OVC100 09/03 A3000 RMK AO2A SLP163 T00850032 401380031
Loading
Personal Weather Stations






























Interactive Weather Map New forecast layout! Learn more

10-Day Weather Forecast

Advertisements
Track Severe Weather on mobile